Mansville, Pennsylvania
Current Conditions -  °F | °C
As of 12:56 AM on Sunday 23 Nov 2014 (Local Time) from KCXY Reporting Station
Clear Clear  
Wind Chill: 33°   Ceiling: Unl
Heat Index: 33°   Visibility: 10mi
Dew Point: 23°   Wind: 0mph
Humidity: 66%   Direction: NA
Pressure: 30.19"   Gusts: NA
Location:  40.3632°N, 77.2671°W
Report Text: KCXY 230556Z AUTO 00000KT 10SM CLR 01/M05 A3019 RMK AO2 SLP227 T00061050 10033 21006 58007
Loading
Personal Weather Stations






























Interactive Weather Map New forecast layout! Learn more

10-Day Weather Forecast

Advertisements
Track Severe Weather on mobile